createdAt,value
2018-02-01T00:01:23.420Z,3.63
2018-02-01T00:03:50.953Z,6.10
2018-02-01T00:06:18.381Z,4.63
2018-02-01T00:08:45.817Z,5.80
2018-02-01T00:11:13.290Z,5.20
2018-02-01T00:13:40.766Z,9.70
2018-02-01T00:16:08.197Z,9.40
2018-02-01T00:18:35.639Z,8.83
2018-02-01T00:32:25.737Z,6.20
2018-02-01T00:34:53.167Z,6.30
2018-02-01T00:37:20.625Z,10.30
2018-02-01T00:39:48.070Z,4.87
2018-02-01T00:42:15.547Z,6.33
2018-02-01T00:44:42.946Z,7.97
2018-02-01T00:47:10.377Z,5.53
2018-02-01T00:49:37.801Z,5.17
2018-02-01T00:52:05.266Z,9.50
2018-02-01T00:54:32.714Z,9.70
2018-02-01T00:57:00.198Z,9.60
2018-02-01T00:59:27.613Z,6.17
2018-02-01T01:01:55.049Z,7.10
2018-02-01T01:04:22.479Z,6.60
2018-02-01T01:06:49.934Z,14.60
2018-02-01T01:09:17.394Z,8.93
2018-02-01T01:11:44.825Z,11.43
2018-02-01T01:14:12.266Z,17.13
2018-02-01T01:16:39.729Z,11.37
2018-02-01T01:19:07.145Z,7.97
2018-02-01T01:21:34.581Z,6.60
2018-02-01T01:24:02.005Z,9.03
2018-02-01T01:26:29.449Z,26.20
2018-02-01T01:28:56.887Z,26.57
2018-02-01T01:31:24.405Z,26.80
2018-02-01T01:33:51.838Z,23.90
2018-02-01T01:36:19.289Z,22.93
2018-02-01T01:38:46.779Z,24.37
2018-02-01T01:41:14.161Z,28.40
2018-02-01T01:43:41.593Z,25.27
2018-02-01T01:46:10.559Z,26.13
2018-02-01T01:48:38.005Z,31.73
2018-02-01T01:51:05.491Z,26.93
2018-02-01T01:53:32.935Z,32.07
2018-02-01T01:56:00.382Z,24.10
2018-02-01T01:58:27.812Z,18.27
2018-02-01T02:00:55.265Z,21.20
2018-02-01T02:03:22.887Z,30.63
2018-02-01T02:05:51.094Z,32.23
2018-02-01T02:08:18.540Z,25.50
2018-02-01T02:10:45.975Z,27.70
2018-02-01T02:13:13.434Z,22.70
2018-02-01T02:15:41.029Z,19.00
2018-02-01T02:18:08.500Z,19.13
2018-02-01T02:20:36.002Z,19.00
2018-02-01T02:23:03.486Z,14.80
2018-02-01T02:25:31.678Z,16.40
2018-02-01T02:27:59.128Z,15.83
2018-02-01T02:30:26.561Z,6.17
2018-02-01T02:32:54.026Z,10.53
2018-02-01T02:35:21.458Z,3.80
2018-02-01T02:37:49.131Z,13.00
2018-02-01T02:40:16.574Z,10.43
2018-02-01T02:42:44.023Z,17.23
2018-02-01T02:45:11.483Z,16.40
2018-02-01T02:47:38.930Z,16.60
2018-02-01T02:50:06.411Z,18.23
2018-02-01T02:52:34.633Z,15.97
2018-02-01T02:55:02.260Z,21.03
2018-02-01T02:57:29.698Z,17.80
2018-02-01T02:59:57.158Z,20.93
2018-02-01T03:02:24.649Z,22.10
2018-02-01T03:04:52.099Z,12.53
2018-02-01T03:07:19.539Z,13.83
2018-02-01T03:09:47.004Z,10.70
2018-02-01T03:12:14.435Z,9.40
2018-02-01T03:14:41.906Z,14.40
2018-02-01T03:17:09.342Z,10.80
2018-02-01T03:19:36.806Z,16.53
2018-02-01T03:22:04.242Z,20.40
2018-02-01T03:24:31.690Z,13.33
2018-02-01T03:26:59.130Z,10.40
2018-02-01T03:29:26.619Z,9.53
2018-02-01T03:31:54.098Z,12.23
2018-02-01T03:34:21.535Z,25.97
2018-02-01T03:36:49.024Z,17.30
2018-02-01T03:39:17.227Z,18.93
2018-02-01T03:41:44.698Z,25.93
2018-02-01T03:44:12.170Z,25.23
2018-02-01T03:46:39.626Z,21.30
2018-02-01T03:49:07.067Z,11.13
2018-02-01T03:51:34.702Z,10.17
2018-02-01T03:54:02.150Z,5.57
2018-02-01T03:56:29.594Z,9.20
2018-02-01T03:58:57.032Z,12.40
2018-02-01T04:01:24.483Z,10.20
2018-02-01T04:03:51.918Z,10.83
2018-02-01T04:06:19.434Z,10.70
2018-02-01T04:08:46.862Z,6.23
2018-02-01T04:11:14.310Z,6.47
2018-02-01T04:13:41.767Z,8.60
2018-02-01T04:16:09.212Z,8.50
2018-02-01T04:18:36.654Z,11.67
2018-02-01T04:21:04.110Z,13.30
2018-02-01T04:23:31.638Z,11.13
2018-02-01T04:25:59.074Z,7.57
2018-02-01T04:28:26.520Z,12.23
2018-02-01T04:30:53.971Z,7.13
2018-02-01T04:33:21.410Z,6.37
2018-02-01T04:35:48.848Z,5.97
2018-02-01T04:38:16.308Z,7.90
2018-02-01T04:40:43.762Z,11.30
2018-02-01T04:43:11.207Z,3.73
2018-02-01T04:45:38.642Z,8.20
2018-02-01T04:48:06.889Z,7.93
2018-02-01T04:50:34.318Z,6.47
2018-02-01T04:53:01.785Z,9.80
2018-02-01T04:55:29.982Z,6.40
2018-02-01T04:57:57.430Z,8.40
2018-02-01T05:00:24.866Z,6.90
2018-02-01T05:02:52.308Z,5.00
2018-02-01T05:05:19.746Z,5.93
2018-02-01T05:07:47.194Z,13.20
2018-02-01T05:10:14.629Z,10.33
2018-02-01T05:12:42.084Z,11.40
2018-02-01T05:15:11.041Z,10.10
2018-02-01T05:17:38.618Z,8.37
2018-02-01T05:20:06.058Z,7.83
2018-02-01T05:22:33.498Z,8.27
2018-02-01T05:25:00.942Z,11.27
2018-02-01T05:27:28.394Z,9.03
2018-02-01T05:29:55.846Z,7.00
2018-02-01T05:32:23.278Z,7.63
2018-02-01T05:34:50.726Z,8.80
2018-02-01T05:37:18.171Z,6.40
2018-02-01T05:39:45.618Z,6.00
2018-02-01T05:42:13.055Z,4.60
2018-02-01T05:44:40.550Z,3.63
2018-02-01T05:47:07.970Z,8.93
2018-02-01T05:49:35.411Z,6.23
2018-02-01T05:52:02.870Z,4.80
2018-02-01T05:54:30.350Z,4.10
2018-02-01T05:56:57.790Z,6.03
2018-02-01T05:59:25.230Z,6.00
2018-02-01T06:01:52.670Z,12.50
2018-02-01T06:04:20.189Z,6.00
2018-02-01T06:06:48.856Z,7.33
2018-02-01T06:09:16.308Z,3.87
2018-02-01T06:11:43.754Z,9.10
2018-02-01T06:14:11.242Z,4.27
2018-02-01T06:16:38.706Z,8.43
2018-02-01T06:19:06.926Z,5.10
2018-02-01T06:21:35.132Z,6.23
2018-02-01T06:24:02.566Z,8.10
2018-02-01T06:26:30.023Z,6.00
2018-02-01T06:28:57.482Z,4.57
2018-02-01T06:31:24.927Z,4.23
2018-02-01T06:33:52.364Z,8.67
2018-02-01T06:36:19.818Z,2.73
2018-02-01T06:38:47.255Z,4.10
2018-02-01T06:41:14.698Z,2.97
2018-02-01T06:43:42.222Z,2.20
2018-02-01T06:46:09.671Z,3.93
2018-02-01T06:48:37.114Z,3.63
2018-02-01T06:51:04.547Z,4.50
2018-02-01T06:53:32.032Z,2.93
2018-02-01T06:55:59.466Z,1.73
2018-02-01T06:58:26.910Z,3.70
2018-02-01T07:00:54.344Z,1.43
2018-02-01T07:03:21.787Z,0.97
2018-02-01T07:05:49.213Z,1.20
2018-02-01T07:08:16.658Z,4.70
2018-02-01T07:10:44.090Z,2.10
2018-02-01T07:13:11.562Z,2.13
2018-02-01T07:15:39.134Z,1.60
2018-02-01T07:18:06.579Z,2.20
2018-02-01T07:20:34.006Z,1.43
2018-02-01T07:23:01.455Z,2.70
2018-02-01T07:25:28.893Z,1.00
2018-02-01T07:27:57.118Z,2.13
2018-02-01T07:30:24.571Z,4.17
2018-02-01T07:32:52.019Z,2.73
2018-02-01T07:35:19.450Z,1.87
2018-02-01T07:37:46.894Z,2.13
2018-02-01T07:40:14.354Z,2.00
2018-02-01T07:42:41.803Z,3.47
2018-02-01T07:45:09.272Z,1.27
2018-02-01T07:47:36.703Z,3.50
2018-02-01T07:50:04.144Z,2.83
2018-02-01T07:52:31.579Z,4.13
2018-02-01T07:54:59.066Z,6.80
2018-02-01T07:57:26.482Z,7.17
2018-02-01T07:59:53.958Z,3.47
2018-02-01T08:02:21.411Z,4.47
2018-02-01T08:04:48.875Z,1.57
2018-02-01T08:07:16.310Z,3.20
2018-02-01T08:09:43.837Z,3.00
2018-02-01T08:12:11.262Z,1.50
2018-02-01T08:14:38.715Z,3.67
2018-02-01T08:17:06.152Z,6.53
2018-02-01T08:19:33.609Z,4.03
2018-02-01T08:22:01.046Z,4.67
2018-02-01T08:24:28.520Z,4.70
2018-02-01T08:26:55.958Z,14.30
2018-02-01T08:29:24.228Z,6.40
2018-02-01T08:31:51.683Z,5.73
2018-02-01T08:34:19.118Z,2.40
2018-02-01T08:36:46.554Z,5.73
2018-02-01T08:39:14.013Z,6.00
2018-02-01T08:41:42.955Z,4.60
2018-02-01T08:44:10.395Z,3.57
2018-02-01T08:46:37.843Z,2.77
2018-02-01T08:49:05.278Z,4.23
2018-02-01T08:51:32.762Z,6.80
2018-02-01T08:54:00.210Z,2.60
2018-02-01T08:56:27.715Z,3.63
2018-02-01T08:58:55.163Z,2.93
2018-02-01T09:01:22.611Z,5.70
2018-02-01T09:03:50.050Z,2.87
2018-02-01T09:06:17.482Z,2.60
2018-02-01T09:08:44.935Z,1.87
2018-02-01T09:11:12.371Z,2.23
2018-02-01T09:13:39.811Z,3.07
2018-02-01T09:16:07.244Z,2.70
2018-02-01T09:18:34.694Z,4.00
2018-02-01T09:21:02.155Z,4.93
2018-02-01T09:23:29.579Z,4.67
2018-02-01T09:25:57.011Z,5.80
2018-02-01T09:28:24.490Z,4.43
2018-02-01T09:30:51.952Z,2.87
2018-02-01T09:33:21.363Z,3.77
2018-02-01T09:35:48.806Z,1.83
2018-02-01T09:38:16.238Z,2.30
2018-02-01T09:40:43.714Z,6.43
2018-02-01T09:43:11.138Z,7.50
2018-02-01T09:45:38.586Z,4.30
2018-02-01T09:48:06.040Z,6.23
2018-02-01T09:50:34.250Z,10.20
2018-02-01T09:53:01.691Z,16.13
2018-02-01T09:55:29.162Z,14.70
2018-02-01T09:57:56.602Z,12.77
2018-02-01T10:00:24.055Z,6.73
2018-02-01T10:02:51.489Z,3.07
2018-02-01T10:05:18.958Z,2.60
2018-02-01T10:07:46.427Z,2.27
2018-02-01T10:10:13.875Z,2.03
2018-02-01T10:12:41.377Z,1.60
2018-02-01T10:15:08.778Z,2.20
2018-02-01T10:17:36.245Z,2.13
2018-02-01T10:20:03.702Z,1.87
2018-02-01T10:22:31.183Z,2.40
2018-02-01T10:38:05.083Z,25.63
2018-02-01T10:40:32.530Z,2.37
2018-02-01T10:42:59.967Z,1.43
2018-02-01T10:45:27.412Z,1.70
2018-02-01T10:47:54.916Z,27.93
2018-02-01T10:50:22.371Z,7.73
2018-02-01T10:52:49.793Z,2.00
2018-02-01T10:55:17.249Z,3.17
2018-02-01T10:57:44.719Z,8.23
2018-02-01T11:00:12.224Z,3.63
2018-02-01T11:02:39.631Z,82.73
2018-02-01T11:05:07.103Z,57.73
2018-02-01T11:07:34.543Z,54.47
2018-02-01T11:10:02.002Z,57.23
2018-02-01T11:12:29.447Z,58.17
2018-02-01T11:14:56.906Z,102.97
2018-02-01T11:17:24.374Z,101.77
2018-02-01T11:19:51.842Z,108.67
2018-02-01T11:22:19.286Z,112.10
2018-02-01T11:24:46.756Z,103.73
2018-02-01T11:27:14.244Z,113.63
2018-02-01T11:29:41.682Z,99.13
2018-02-01T11:32:09.130Z,112.80
2018-02-01T11:34:36.598Z,175.07
2018-02-01T11:37:04.082Z,159.77
2018-02-01T11:39:31.550Z,147.53
2018-02-01T11:41:59.020Z,185.33
2018-02-01T11:44:27.250Z,194.63
2018-02-01T11:46:54.704Z,190.33
2018-02-01T11:49:22.154Z,183.87
2018-02-01T11:51:49.622Z,119.27
2018-02-01T11:54:17.093Z,210.93
2018-02-01T11:56:44.542Z,206.63
2018-02-01T11:59:12.031Z,210.27
2018-02-01T12:01:39.481Z,175.53
2018-02-01T12:04:06.935Z,159.33
2018-02-01T12:06:34.438Z,157.10
2018-02-01T12:09:01.890Z,154.07
2018-02-01T12:11:29.347Z,166.40
2018-02-01T12:13:56.813Z,170.67
2018-02-01T12:16:25.074Z,168.68
2018-02-01T12:18:52.531Z,148.63
2018-02-01T12:21:19.987Z,145.23
2018-02-01T12:23:47.502Z,144.90
2018-02-01T12:26:14.973Z,145.37
2018-02-01T12:28:42.452Z,144.87
2018-02-01T12:31:09.911Z,144.90
2018-02-01T12:33:37.378Z,144.97
2018-02-01T12:36:04.835Z,145.37
2018-02-01T12:38:32.290Z,145.47
2018-02-01T12:40:59.766Z,141.90
2018-02-01T12:43:27.234Z,140.57
2018-02-01T12:45:54.702Z,115.23
2018-02-01T12:48:22.150Z,122.10
2018-02-01T12:50:49.610Z,105.70
2018-02-01T12:53:17.059Z,118.67
2018-02-01T12:55:44.512Z,120.37
2018-02-01T12:58:11.978Z,116.67
2018-02-01T13:00:39.443Z,111.10
2018-02-01T13:03:06.890Z,110.40
2018-02-01T13:05:34.373Z,109.80
2018-02-01T13:08:01.853Z,112.07
2018-02-01T13:10:29.317Z,124.40
2018-02-01T13:12:56.792Z,115.70
2018-02-01T13:15:24.246Z,106.13
2018-02-01T13:17:51.689Z,125.73
2018-02-01T13:20:19.155Z,118.97
2018-02-01T13:22:46.618Z,119.43
2018-02-01T13:25:14.246Z,118.80
2018-02-01T13:27:41.700Z,120.97
2018-02-01T13:30:09.164Z,134.13
2018-02-01T13:32:36.610Z,159.93
2018-02-01T13:35:04.074Z,153.27
2018-02-01T13:37:31.768Z,166.47
2018-02-01T13:39:59.206Z,197.10
2018-02-01T13:42:26.650Z,182.97
2018-02-01T13:44:55.159Z,193.63
2018-02-01T13:47:22.635Z,195.37
2018-02-01T13:49:51.269Z,172.63
2018-02-01T13:52:18.775Z,174.30
2018-02-01T13:54:46.206Z,156.03
2018-02-01T13:57:13.662Z,140.93
2018-02-01T13:59:41.120Z,134.03
2018-02-01T14:02:08.581Z,125.80
2018-02-01T14:04:37.245Z,133.07
2018-02-01T14:07:05.478Z,116.90
2018-02-01T14:09:32.930Z,136.70
2018-02-01T14:12:00.398Z,123.30
2018-02-01T14:14:28.926Z,132.23
2018-02-01T14:16:56.426Z,132.10
2018-02-01T14:19:24.654Z,134.57
2018-02-01T14:21:52.881Z,116.53
2018-02-01T14:24:20.334Z,146.13
2018-02-01T14:26:47.795Z,147.87
2018-02-01T14:29:15.255Z,98.40
2018-02-01T14:31:42.711Z,102.67
2018-02-01T14:34:10.175Z,106.93
2018-02-01T14:36:37.630Z,109.57
2018-02-01T14:39:05.107Z,112.10
2018-02-01T14:41:32.582Z,103.20
2018-02-01T14:44:00.029Z,102.00
2018-02-01T14:46:27.486Z,100.40
2018-02-01T14:48:54.930Z,112.50
2018-02-01T14:51:22.399Z,111.97
2018-02-01T14:53:49.854Z,83.03
2018-02-01T14:56:17.330Z,77.37
2018-02-01T14:58:44.999Z,89.90
2018-02-01T15:01:12.450Z,89.67
2018-02-01T15:03:39.894Z,95.60
2018-02-01T15:06:07.349Z,94.03
2018-02-01T15:08:34.795Z,99.70
2018-02-01T15:11:02.259Z,94.60
2018-02-01T15:13:29.718Z,96.40
2018-02-01T15:15:57.183Z,93.30
2018-02-01T15:18:24.634Z,90.53
2018-02-01T15:20:52.246Z,111.40
2018-02-01T15:23:19.695Z,98.00
2018-02-01T15:25:47.154Z,92.53
2018-02-01T15:28:14.790Z,94.90
2018-02-01T15:30:42.278Z,139.83
2018-02-01T15:33:09.734Z,138.90
2018-02-01T15:35:37.190Z,142.00
2018-02-01T15:38:04.642Z,142.27
2018-02-01T15:40:32.206Z,139.97
2018-02-01T15:42:59.671Z,139.50
2018-02-01T15:45:27.121Z,140.20
2018-02-01T15:47:54.578Z,144.13
2018-02-01T15:50:22.199Z,139.97
2018-02-01T15:52:49.662Z,140.10
2018-02-01T15:55:17.106Z,134.30
2018-02-01T15:57:44.974Z,139.73
2018-02-01T16:00:13.199Z,136.57
2018-02-01T16:02:40.731Z,137.30
2018-02-01T16:05:08.191Z,141.57
2018-02-01T16:07:35.656Z,140.33
2018-02-01T16:10:03.132Z,140.40
2018-02-01T16:12:30.585Z,138.87
2018-02-01T16:14:58.034Z,143.90
2018-02-01T16:17:25.518Z,140.60
2018-02-01T16:19:54.144Z,141.07
2018-02-01T16:22:21.611Z,141.17
2018-02-01T16:24:49.058Z,140.20
2018-02-01T16:27:16.518Z,138.70
2018-02-01T16:29:44.021Z,142.93
2018-02-01T16:32:11.450Z,138.73
2018-02-01T16:34:38.899Z,138.70
2018-02-01T16:37:06.354Z,141.63
2018-02-01T16:39:33.802Z,139.57
2018-02-01T16:42:01.263Z,140.27
2018-02-01T16:44:28.706Z,140.90
2018-02-01T16:46:56.166Z,139.97
2018-02-01T16:49:23.655Z,138.90
2018-02-01T16:51:51.130Z,138.67
2018-02-01T16:54:19.766Z,139.60
2018-02-01T16:56:48.004Z,139.20
2018-02-01T16:59:15.450Z,140.27
2018-02-01T17:01:42.910Z,142.37
2018-02-01T17:04:10.361Z,139.37
2018-02-01T17:06:37.818Z,137.43
2018-02-01T17:09:05.270Z,141.30
2018-02-01T17:11:32.734Z,138.67
2018-02-01T17:14:00.180Z,137.00
2018-02-01T17:16:27.636Z,140.73
2018-02-01T17:18:55.090Z,139.07
2018-02-01T17:21:22.570Z,136.67
2018-02-01T17:23:50.068Z,142.13
2018-02-01T17:26:18.306Z,135.63
2018-02-01T17:28:45.819Z,137.10
2018-02-01T17:31:13.280Z,139.60
2018-02-01T17:33:40.726Z,141.27
2018-02-01T17:36:08.179Z,139.10
2018-02-01T17:38:35.772Z,138.33
2018-02-01T17:41:03.242Z,138.90
2018-02-01T17:43:30.702Z,141.30
2018-02-01T17:45:58.146Z,136.00
2018-02-01T17:48:25.639Z,136.77
2018-02-01T17:50:53.146Z,137.20
2018-02-01T17:53:20.613Z,137.37
2018-02-01T17:55:48.098Z,135.00
2018-02-01T17:58:15.555Z,134.03
2018-02-01T18:00:43.022Z,132.67
2018-02-01T18:03:10.518Z,131.67
2018-02-01T18:05:38.000Z,133.47
2018-02-01T18:08:05.439Z,128.70
2018-02-01T18:10:32.926Z,132.33
2018-02-01T18:13:00.387Z,130.23
2018-02-01T18:15:27.864Z,133.17
2018-02-01T18:17:55.335Z,136.70
2018-02-01T18:20:22.788Z,129.90
2018-02-01T18:22:50.254Z,129.83
2018-02-01T18:25:17.754Z,129.77
2018-02-01T18:27:45.203Z,129.50
2018-02-01T18:30:12.783Z,126.73
2018-02-01T18:32:40.245Z,128.13
2018-02-01T18:35:07.715Z,126.67
2018-02-01T18:37:35.967Z,124.87
2018-02-01T18:40:03.434Z,133.97
2018-02-01T18:42:30.988Z,124.60
2018-02-01T18:44:58.438Z,127.87
2018-02-01T18:47:25.914Z,125.00
2018-02-01T18:49:53.524Z,128.17
2018-02-01T18:52:20.942Z,125.30
2018-02-01T18:54:48.432Z,125.10
2018-02-01T18:57:15.883Z,126.17
2018-02-01T18:59:43.480Z,126.80
2018-02-01T19:02:10.973Z,122.70
2018-02-01T19:04:38.432Z,125.17
2018-02-01T19:07:05.922Z,127.67
2018-02-01T19:09:33.618Z,123.43
2018-02-01T19:12:01.091Z,126.33
2018-02-01T19:14:28.538Z,127.57
2018-02-01T19:16:56.018Z,126.77
2018-02-01T19:19:23.486Z,132.80
2018-02-01T19:21:50.958Z,122.77
2018-02-01T19:24:18.641Z,122.60
2018-02-01T19:26:46.113Z,122.17
2018-02-01T19:29:13.600Z,120.20
2018-02-01T19:31:41.068Z,124.40
2018-02-01T19:34:08.562Z,123.97
2018-02-01T19:36:36.016Z,126.47
2018-02-01T19:39:03.481Z,126.80
2018-02-01T19:41:30.955Z,124.30
2018-02-01T19:43:58.432Z,125.80
2018-02-01T19:46:25.879Z,124.63
2018-02-01T19:48:53.354Z,128.80
2018-02-01T19:51:20.805Z,124.83
2018-02-01T19:53:48.474Z,128.47
2018-02-01T19:56:15.924Z,127.50
2018-02-01T19:58:43.384Z,134.47
2018-02-01T20:01:10.873Z,128.77
2018-02-01T20:03:38.331Z,129.77
2018-02-01T20:06:05.783Z,126.63
2018-02-01T20:08:33.274Z,125.17
2018-02-01T20:11:01.007Z,123.70
2018-02-01T20:13:28.482Z,124.67
2018-02-01T20:15:55.940Z,124.07
2018-02-01T20:18:23.446Z,124.30
2018-02-01T20:20:50.902Z,122.70
2018-02-01T20:23:18.414Z,125.73
2018-02-01T20:25:45.904Z,125.77
2018-02-01T20:28:13.362Z,120.80
2018-02-01T20:30:41.582Z,128.10
2018-02-01T20:33:09.914Z,129.50
2018-02-01T20:35:37.382Z,131.67
2018-02-01T20:38:04.861Z,134.13
2018-02-01T20:40:32.329Z,134.87
2018-02-01T20:42:59.790Z,134.03
2018-02-01T20:45:27.242Z,130.57
2018-02-01T20:47:54.741Z,132.20
2018-02-01T20:50:22.955Z,131.57
2018-02-01T20:52:50.418Z,131.37
2018-02-01T20:55:17.894Z,124.20
2018-02-01T20:57:45.410Z,124.80
2018-02-01T21:00:12.867Z,116.07
2018-02-01T21:02:40.334Z,120.97
2018-02-01T21:05:07.786Z,130.27
2018-02-01T21:07:35.252Z,128.30
2018-02-01T21:10:02.726Z,127.20
2018-02-01T21:12:30.175Z,133.63
2018-02-01T21:14:58.838Z,133.37
2018-02-01T21:17:26.286Z,135.20
2018-02-01T21:19:53.758Z,135.17
2018-02-01T21:22:21.246Z,135.07
2018-02-01T21:24:48.698Z,133.07
2018-02-01T21:27:16.422Z,131.30
2018-02-01T21:29:43.900Z,135.40
2018-02-01T21:32:11.374Z,132.10
2018-02-01T21:34:39.597Z,135.57
2018-02-01T21:37:07.838Z,132.97
2018-02-01T21:39:35.306Z,135.40
2018-02-01T21:42:02.777Z,134.47
2018-02-01T21:44:30.483Z,131.43
2018-02-01T21:46:57.962Z,133.40
2018-02-01T21:49:27.006Z,131.68
2018-02-01T21:51:55.222Z,134.20
2018-02-01T21:54:22.690Z,133.57
2018-02-01T21:56:50.170Z,130.60
2018-02-01T21:59:17.625Z,130.37
2018-02-01T22:01:45.086Z,128.87
2018-02-01T22:04:12.554Z,129.30
2018-02-01T22:06:40.002Z,136.20
2018-02-01T22:09:07.486Z,136.50
2018-02-01T22:11:34.956Z,132.00
2018-02-01T22:14:02.428Z,129.53
2018-02-01T22:16:29.916Z,132.23
2018-02-01T22:18:57.328Z,131.97
2018-02-01T22:21:24.782Z,128.33
2018-02-01T22:23:52.246Z,128.97
2018-02-01T22:26:19.710Z,126.33
2018-02-01T22:28:47.175Z,127.07
2018-02-01T22:31:14.651Z,128.60
2018-02-01T22:33:42.115Z,128.77
2018-02-01T22:36:09.586Z,127.17
2018-02-01T22:38:37.058Z,130.20
2018-02-01T22:41:05.369Z,123.67
2018-02-01T22:43:32.826Z,125.70
2018-02-01T22:46:00.280Z,137.30
2018-02-01T22:48:27.774Z,134.33
2018-02-01T22:50:55.198Z,136.40
2018-02-01T22:53:22.646Z,136.73
2018-02-01T22:55:50.095Z,131.90
2018-02-01T22:58:17.545Z,138.80
2018-02-01T23:00:45.014Z,132.47
2018-02-01T23:03:12.483Z,131.03
2018-02-01T23:05:39.942Z,132.33
2018-02-01T23:08:07.518Z,128.93
2018-02-01T23:10:35.011Z,132.00
2018-02-01T23:13:02.462Z,129.90
2018-02-01T23:15:29.938Z,128.40
2018-02-01T23:17:59.350Z,130.00
2018-02-01T23:20:27.573Z,122.17
2018-02-01T23:22:55.023Z,123.03
2018-02-01T23:25:22.490Z,124.07
2018-02-01T23:27:49.971Z,124.40
2018-02-01T23:30:17.446Z,124.57
2018-02-01T23:32:45.668Z,124.53
2018-02-01T23:35:13.138Z,127.37
2018-02-01T23:37:40.595Z,127.33
2018-02-01T23:40:08.054Z,125.30
2018-02-01T23:42:35.510Z,132.37
2018-02-01T23:45:03.006Z,124.63
2018-02-01T23:47:30.455Z,122.27
2018-02-01T23:49:58.172Z,126.63
2018-02-01T23:52:25.618Z,124.20
2018-02-01T23:54:53.070Z,129.37
2018-02-01T23:57:20.519Z,130.80
2018-02-01T23:59:48.000Z,127.57
